Time;durP1;ratioP1;P1;durP2;ratioP2;P2;SDS_P1;SDS_P2;PMS_P1;PMS_P2;Temp;Humidity;BMP_temperature;BMP_pressure;BME280_temperature;BME280_humidity;BME280_pressure;Samples;Min_cycle;Max_cycle;Signal;HPM_P1;HPM_P2
2023/06/19 00:00:58;;;;;;;2.00;1.90;;;21.10;99.90;;;;;;5081596;28;20262;-65
2023/06/19 00:03:26;;;;;;;1.65;1.55;;;21.10;99.90;;;;;;5089144;28;20283;-65
2023/06/19 00:05:53;;;;;;;2.30;2.08;;;21.00;99.90;;;;;;5089594;28;20197;-65
2023/06/19 00:08:22;;;;;;;1.80;1.70;;;21.00;99.90;;;;;;5083823;28;20230;-65
2023/06/19 00:10:49;;;;;;;1.80;1.70;;;21.00;99.90;;;;;;5084365;28;20203;-65
2023/06/19 00:13:18;;;;;;;1.90;1.80;;;21.00;99.90;;;;;;5089432;28;20196;-64
2023/06/19 00:15:46;;;;;;;2.15;2.00;;;20.90;99.90;;;;;;5084945;28;20291;-65
2023/06/19 00:18:16;;;;;;;1.98;1.88;;;20.90;99.90;;;;;;5090053;28;20197;-65
2023/06/19 00:20:45;;;;;;;1.73;1.63;;;20.80;99.90;;;;;;5087404;28;20250;-65
2023/06/19 00:23:14;;;;;;;1.65;1.55;;;20.80;99.90;;;;;;5086917;28;20197;-65
2023/06/19 00:25:44;;;;;;;2.03;1.92;;;20.80;99.90;;;;;;5093181;28;20199;-64
2023/06/19 00:28:13;;;;;;;1.30;1.30;;;20.80;99.90;;;;;;5089595;28;20204;-65
2023/06/19 00:30:41;;;;;;;1.83;1.73;;;20.80;99.90;;;;;;5085289;28;20798;-65
2023/06/19 00:33:09;;;;;;;1.90;1.80;;;20.80;99.90;;;;;;5088781;28;20500;-65
2023/06/19 00:35:36;;;;;;;1.73;1.63;;;20.80;99.90;;;;;;5089182;28;20204;-65
2023/06/19 00:38:04;;;;;;;2.03;1.83;;;20.70;99.90;;;;;;5083467;28;20217;-65
2023/06/19 00:40:33;;;;;;;1.45;1.40;;;20.70;99.90;;;;;;5084839;28;20194;-65
2023/06/19 00:43:03;;;;;;;1.83;1.73;;;20.70;99.90;;;;;;5087790;28;20656;-65
2023/06/19 00:45:31;;;;;;;2.03;1.92;;;20.70;99.90;;;;;;5089516;28;20654;-64
2023/06/19 00:47:59;;;;;;;1.85;1.75;;;20.70;99.90;;;;;;5086240;28;20211;-65
2023/06/19 00:50:28;;;;;;;1.90;1.80;;;20.70;99.90;;;;;;5089894;28;20293;-63
2023/06/19 00:52:58;;;;;;;2.10;2.00;;;20.60;99.90;;;;;;5086032;28;20299;-65
2023/06/19 00:55:29;;;;;;;2.10;2.00;;;20.60;99.90;;;;;;5082353;28;20312;-65
2023/06/19 00:57:56;;;;;;;2.03;1.92;;;20.60;99.90;;;;;;5087286;28;20196;-63
2023/06/19 01:03:01;;;;;;;2.03;1.92;;;20.60;99.90;;;;;;5403521;22;20228;-65
2023/06/19 01:05:30;;;;;;;2.13;2.03;;;20.60;99.90;;;;;;5071248;28;20197;-64
2023/06/19 01:08:05;;;;;;;2.05;1.95;;;20.60;99.90;;;;;;5064680;28;20193;-64
2023/06/19 01:10:38;;;;;;;2.05;1.95;;;20.60;99.90;;;;;;5064537;28;20196;-64
2023/06/19 01:13:11;;;;;;;2.33;2.15;;;20.50;99.90;;;;;;5064511;28;20229;-64
2023/06/19 01:15:41;;;;;;;2.00;1.90;;;20.50;99.90;;;;;;5066755;28;20263;-64
2023/06/19 01:18:12;;;;;;;2.00;1.90;;;20.50;99.90;;;;;;5067321;28;20201;-64
2023/06/19 01:20:39;;;;;;;2.35;2.25;;;20.50;99.90;;;;;;5060009;28;20524;-64
2023/06/19 01:23:11;;;;;;;2.00;1.90;;;20.40;99.90;;;;;;5067977;28;20664;-64
2023/06/19 01:25:40;;;;;;;2.08;1.98;;;20.40;99.90;;;;;;5059024;28;20182;-64
2023/06/19 01:28:11;;;;;;;2.70;2.47;;;20.50;99.90;;;;;;5069816;28;20200;-64
2023/06/19 01:30:41;;;;;;;2.00;1.90;;;20.40;99.90;;;;;;5070146;28;20197;-63
2023/06/19 01:33:13;;;;;;;2.20;2.10;;;20.40;99.90;;;;;;5068877;28;20228;-64
2023/06/19 01:35:45;;;;;;;2.20;2.10;;;20.40;99.90;;;;;;5056149;28;20735;-65
2023/06/19 01:38:15;;;;;;;2.80;2.60;;;20.40;99.90;;;;;;5070486;28;20201;-64
2023/06/19 01:40:43;;;;;;;2.40;2.30;;;20.40;99.90;;;;;;5064355;28;20287;-64
2023/06/19 01:43:14;;;;;;;2.80;2.60;;;20.30;99.90;;;;;;5072203;28;20208;-64
2023/06/19 01:45:42;;;;;;;2.67;2.47;;;20.30;99.90;;;;;;5067194;28;20200;-63
2023/06/19 01:48:10;;;;;;;2.60;2.40;;;20.40;99.90;;;;;;5070537;28;20194;-64
2023/06/19 01:50:39;;;;;;;2.72;2.53;;;20.30;99.90;;;;;;5070233;28;20200;-64
2023/06/19 01:53:07;;;;;;;2.35;2.25;;;20.30;99.90;;;;;;5066742;28;20201;-64
2023/06/19 01:55:36;;;;;;;2.40;2.20;;;20.30;99.90;;;;;;5069379;28;20201;-64
2023/06/19 01:58:03;;;;;;;2.40;2.20;;;20.20;99.90;;;;;;5064587;28;20193;-64
2023/06/19 02:00:35;;;;;;;2.63;2.45;;;20.20;99.90;;;;;;5068730;28;20216;-64
2023/06/19 02:03:02;;;;;;;2.40;2.20;;;20.20;99.90;;;;;;5064396;28;20708;-64
2023/06/19 02:05:30;;;;;;;2.60;2.40;;;20.10;99.90;;;;;;5065426;28;20281;-65
2023/06/19 02:07:58;;;;;;;2.45;2.33;;;20.10;99.90;;;;;;5063199;28;20258;-64
2023/06/19 02:10:25;;;;;;;2.35;2.25;;;20.00;99.90;;;;;;5069628;28;20201;-63
2023/06/19 02:12:54;;;;;;;2.65;2.50;;;20.00;99.90;;;;;;5081491;28;20216;-61
2023/06/19 02:15:21;;;;;;;2.35;2.15;;;20.00;99.90;;;;;;5069383;28;20213;-64
2023/06/19 02:17:49;;;;;;;2.22;2.13;;;20.00;99.90;;;;;;5068339;28;20219;-64
2023/06/19 02:20:16;;;;;;;2.40;2.30;;;20.00;99.90;;;;;;5069447;28;20197;-64
2023/06/19 02:22:44;;;;;;;3.08;2.47;;;20.00;99.90;;;;;;5069950;28;20212;-64
2023/06/19 02:25:11;;;;;;;3.42;2.72;;;19.90;99.90;;;;;;5063651;28;20215;-64
2023/06/19 02:27:39;;;;;;;2.70;2.53;;;20.00;99.90;;;;;;5067934;28;20277;-64
2023/06/19 02:30:09;;;;;;;2.70;2.55;;;20.00;99.90;;;;;;5068104;28;20201;-64
2023/06/19 02:32:37;;;;;;;2.72;2.53;;;19.90;99.90;;;;;;5070059;28;20197;-64
2023/06/19 02:35:05;;;;;;;2.15;2.05;;;20.00;99.90;;;;;;5068105;28;20215;-64
2023/06/19 02:37:35;;;;;;;2.20;2.10;;;20.00;99.90;;;;;;5068326;28;20312;-64
2023/06/19 02:40:04;;;;;;;2.72;2.53;;;20.00;99.90;;;;;;5069025;28;20528;-64
2023/06/19 02:42:34;;;;;;;2.83;2.63;;;20.00;99.90;;;;;;5070239;28;20280;-64
2023/06/19 02:45:03;;;;;;;2.40;2.30;;;20.00;99.90;;;;;;5066492;28;20185;-64
2023/06/19 02:47:33;;;;;;;2.55;2.42;;;20.00;99.90;;;;;;5061706;28;20205;-64
2023/06/19 02:50:02;;;;;;;2.60;2.40;;;20.00;99.90;;;;;;5068650;28;20205;-64
2023/06/19 02:52:29;;;;;;;3.00;2.58;;;19.90;99.90;;;;;;5058873;28;20206;-64
2023/06/19 02:54:57;;;;;;;2.60;2.50;;;20.00;99.90;;;;;;5068084;28;20201;-64
2023/06/19 02:57:24;;;;;;;2.75;2.55;;;19.90;99.90;;;;;;5069145;28;20189;-64
2023/06/19 02:59:52;;;;;;;2.58;2.38;;;19.90;99.90;;;;;;5069219;28;20205;-63
2023/06/19 03:02:20;;;;;;;2.90;2.70;;;19.90;99.90;;;;;;5069015;28;20241;-63
2023/06/19 03:04:49;;;;;;;2.20;2.10;;;19.90;99.90;;;;;;5065915;28;20204;-64
2023/06/19 03:07:17;;;;;;;2.17;2.08;;;19.90;99.90;;;;;;5066418;28;20209;-64
2023/06/19 03:09:44;;;;;;;2.22;2.13;;;19.90;99.90;;;;;;5060087;28;20684;-64
2023/06/19 03:12:13;;;;;;;2.70;2.50;;;19.90;99.90;;;;;;5065802;28;20208;-64
2023/06/19 03:14:40;;;;;;;3.42;2.90;;;19.90;99.90;;;;;;5068767;28;20699;-64
2023/06/19 03:17:08;;;;;;;3.67;3.38;;;19.90;99.90;;;;;;5067174;28;20256;-64
2023/06/19 03:19:35;;;;;;;2.97;2.70;;;19.90;99.90;;;;;;5067800;28;20220;-64
2023/06/19 03:22:05;;;;;;;2.75;2.55;;;19.90;99.90;;;;;;5068351;28;20298;-63
2023/06/19 03:24:33;;;;;;;2.55;2.40;;;19.90;99.90;;;;;;5066823;28;20209;-63
2023/06/19 03:27:14;;;;;;;2.85;2.65;;;20.00;99.90;;;;;;5066277;28;20201;-63
2023/06/19 03:29:41;;;;;;;2.75;2.50;;;19.90;99.90;;;;;;5067639;28;20244;-63
2023/06/19 03:32:11;;;;;;;2.55;2.35;;;20.00;99.90;;;;;;5064075;28;20305;-63
2023/06/19 03:34:39;;;;;;;2.10;2.00;;;20.00;99.90;;;;;;5052484;28;20237;-64
2023/06/19 03:37:12;;;;;;;2.13;2.03;;;20.00;99.90;;;;;;5066939;28;20221;-63
2023/06/19 03:39:40;;;;;;;2.50;2.40;;;20.00;99.90;;;;;;5058195;28;20209;-63
2023/06/19 03:42:11;;;;;;;2.90;2.38;;;20.00;99.90;;;;;;5067780;28;20209;-64
2023/06/19 03:44:38;;;;;;;2.80;2.58;;;20.00;99.90;;;;;;5067200;28;20205;-63
2023/06/19 03:47:07;;;;;;;2.58;2.40;;;20.00;99.90;;;;;;5067431;28;20197;-63
2023/06/19 03:49:34;;;;;;;2.10;2.00;;;20.00;99.90;;;;;;5069620;28;20228;-63
2023/06/19 03:52:01;;;;;;;1.90;1.80;;;20.00;99.90;;;;;;5066736;28;20612;-64
2023/06/19 03:54:30;;;;;;;3.47;3.17;;;20.00;99.90;;;;;;5065092;28;20208;-64
2023/06/19 03:56:58;;;;;;;5.20;4.22;;;20.10;99.90;;;;;;5065328;28;20221;-64
2023/06/19 03:59:25;;;;;;;3.70;3.40;;;20.00;99.90;;;;;;5064906;28;20194;-63
2023/06/19 04:01:54;;;;;;;3.50;3.28;;;20.10;99.90;;;;;;5063155;28;20211;-64
2023/06/19 04:04:21;;;;;;;3.40;3.20;;;20.00;99.90;;;;;;5070736;28;20680;-63
2023/06/19 04:06:49;;;;;;;4.72;4.30;;;20.00;99.90;;;;;;5070022;28;20644;-63
2023/06/19 04:09:17;;;;;;;4.93;4.05;;;20.10;99.90;;;;;;5071358;28;20209;-63
2023/06/19 04:11:46;;;;;;;3.90;3.60;;;20.10;99.90;;;;;;5071670;28;20298;-63
2023/06/19 04:14:14;;;;;;;3.80;3.50;;;20.00;99.90;;;;;;5070495;28;20205;-62
2023/06/19 04:16:41;;;;;;;3.20;3.00;;;20.10;99.90;;;;;;5067585;28;20229;-63
2023/06/19 04:19:11;;;;;;;2.70;2.53;;;20.00;99.90;;;;;;5070805;28;20281;-64
2023/06/19 04:21:38;;;;;;;4.28;3.88;;;20.00;99.90;;;;;;5072214;28;20229;-65
2023/06/19 04:24:08;;;;;;;4.40;3.90;;;20.10;99.90;;;;;;5071470;28;20626;-64
2023/06/19 04:26:36;;;;;;;3.60;3.30;;;20.10;99.90;;;;;;5069599;28;20222;-65
2023/06/19 04:29:06;;;;;;;3.40;3.08;;;20.10;99.90;;;;;;5072290;28;20652;-65
2023/06/19 04:31:40;;;;;;;2.55;2.45;;;20.10;99.90;;;;;;5070932;28;20350;-64
2023/06/19 04:34:08;;;;;;;3.00;2.80;;;20.20;99.90;;;;;;5066208;28;20199;-64
2023/06/19 04:36:35;;;;;;;3.22;2.92;;;20.20;99.90;;;;;;5071490;28;20603;-63
2023/06/19 04:39:03;;;;;;;2.70;2.50;;;20.30;99.90;;;;;;5072106;28;20686;-63
2023/06/19 04:41:31;;;;;;;3.33;3.03;;;20.30;99.90;;;;;;5070284;28;20219;-64
2023/06/19 04:43:58;;;;;;;3.95;3.60;;;20.40;99.90;;;;;;5070889;28;20193;-64
2023/06/19 04:46:27;;;;;;;3.65;3.35;;;20.40;99.90;;;;;;5061623;28;20201;-63
2023/06/19 04:48:55;;;;;;;4.07;3.70;;;20.40;99.90;;;;;;5068669;28;20232;-63
2023/06/19 04:51:22;;;;;;;3.33;3.05;;;20.40;99.90;;;;;;5071653;28;20201;-64
2023/06/19 04:53:50;;;;;;;2.45;2.35;;;20.50;99.90;;;;;;5070465;28;20617;-64
2023/06/19 04:56:17;;;;;;;2.65;2.45;;;20.50;99.90;;;;;;5072301;28;20711;-64
2023/06/19 04:58:47;;;;;;;2.72;2.53;;;20.50;99.90;;;;;;5071895;28;20729;-64
2023/06/19 05:01:14;;;;;;;2.85;2.65;;;20.60;99.90;;;;;;5072374;28;20201;-64
2023/06/19 05:03:45;;;;;;;3.03;2.72;;;20.60;99.90;;;;;;5069562;28;20225;-63
2023/06/19 05:06:13;;;;;;;3.38;3.05;;;20.70;99.90;;;;;;5071768;28;20651;-64
2023/06/19 05:08:40;;;;;;;2.85;2.63;;;20.70;99.90;;;;;;5069503;28;20204;-63
2023/06/19 05:11:08;;;;;;;2.80;2.60;;;20.70;99.90;;;;;;5064239;28;20531;-63
2023/06/19 05:13:35;;;;;;;2.90;2.70;;;20.80;99.90;;;;;;5075659;28;20677;-64
2023/06/19 05:16:03;;;;;;;3.55;3.25;;;20.80;99.90;;;;;;5071399;28;20213;-64
2023/06/19 05:18:30;;;;;;;2.80;2.60;;;21.00;99.90;;;;;;5071555;28;20518;-64
2023/06/19 05:21:02;;;;;;;3.55;3.35;;;21.00;99.90;;;;;;5070437;28;20291;-64
2023/06/19 05:23:29;;;;;;;4.32;3.92;;;21.00;99.90;;;;;;5070522;28;20667;-65
2023/06/19 05:25:57;;;;;;;4.05;3.75;;;21.00;99.90;;;;;;5071731;28;20224;-64
2023/06/19 05:28:24;;;;;;;3.80;3.50;;;21.10;99.90;;;;;;5069322;28;20198;-63
2023/06/19 05:30:52;;;;;;;6.07;3.72;;;21.10;99.90;;;;;;5070592;28;20224;-63
2023/06/19 05:33:19;;;;;;;7.90;3.67;;;21.10;99.90;;;;;;5067131;28;20217;-64
2023/06/19 05:35:52;;;;;;;3.80;3.50;;;21.10;99.90;;;;;;5071193;28;20300;-64
2023/06/19 05:38:21;;;;;;;3.40;3.10;;;21.20;99.90;;;;;;5070592;28;20543;-64
2023/06/19 05:40:48;;;;;;;5.40;4.15;;;21.20;99.90;;;;;;5070069;28;20193;-64
2023/06/19 05:43:15;;;;;;;4.30;3.90;;;21.20;99.90;;;;;;5067332;28;20213;-64
2023/06/19 05:45:43;;;;;;;4.25;3.85;;;21.20;99.90;;;;;;5069713;28;20620;-64
2023/06/19 05:48:11;;;;;;;3.92;3.63;;;21.30;99.90;;;;;;5070514;28;20213;-64
2023/06/19 05:50:38;;;;;;;5.22;3.90;;;21.30;99.90;;;;;;5070602;28;20193;-64
2023/06/19 05:53:06;;;;;;;3.80;3.50;;;21.30;99.90;;;;;;5069868;28;20219;-65
2023/06/19 05:55:35;;;;;;;3.78;3.47;;;21.30;99.90;;;;;;5061190;28;20201;-64
2023/06/19 05:58:04;;;;;;;4.35;3.95;;;21.30;99.90;;;;;;5069726;28;20598;-64
2023/06/19 06:00:32;;;;;;;4.10;3.25;;;21.40;99.90;;;;;;5070498;28;20201;-65
2023/06/19 06:03:00;;;;;;;3.78;3.47;;;21.40;99.90;;;;;;5056575;28;20271;-62
2023/06/19 06:05:28;;;;;;;3.55;3.35;;;21.40;99.90;;;;;;5054910;28;20538;-63
2023/06/19 06:07:55;;;;;;;2.97;2.78;;;21.50;99.90;;;;;;5058602;28;20186;-63
2023/06/19 06:10:25;;;;;;;4.45;4.05;;;21.50;99.90;;;;;;5052052;28;20198;-64
2023/06/19 06:12:53;;;;;;;4.40;4.00;;;21.60;99.90;;;;;;5055271;28;20201;-64
2023/06/19 06:15:21;;;;;;;4.40;4.05;;;21.60;99.90;;;;;;5058560;28;20190;-64
2023/06/19 06:17:48;;;;;;;4.47;4.07;;;21.60;99.90;;;;;;5061464;28;20223;-65
2023/06/19 06:20:16;;;;;;;5.25;4.55;;;21.60;99.90;;;;;;5061729;28;20200;-65
2023/06/19 06:22:44;;;;;;;4.18;3.88;;;21.60;99.90;;;;;;5066604;28;20217;-64
2023/06/19 06:25:11;;;;;;;6.85;5.10;;;21.60;99.90;;;;;;5059497;28;20198;-64
2023/06/19 06:27:39;;;;;;;5.13;4.68;;;21.60;99.90;;;;;;5064456;28;20189;-65
2023/06/19 06:30:09;;;;;;;5.25;4.43;;;21.70;99.90;;;;;;5066285;28;20212;-64
2023/06/19 06:32:38;;;;;;;4.00;3.70;;;21.70;99.90;;;;;;5062189;28;20213;-65
2023/06/19 06:35:06;;;;;;;4.00;3.60;;;21.80;99.90;;;;;;5063423;28;20200;-65
2023/06/19 06:37:33;;;;;;;3.42;3.20;;;21.80;99.90;;;;;;5062575;28;20232;-64
2023/06/19 06:40:01;;;;;;;3.78;3.42;;;21.90;99.90;;;;;;5068041;28;20299;-65
2023/06/19 06:42:28;;;;;;;3.00;2.80;;;22.00;99.90;;;;;;5068467;28;20200;-66
2023/06/19 06:44:56;;;;;;;3.05;2.85;;;22.00;99.90;;;;;;5064269;28;20276;-65
2023/06/19 06:47:25;;;;;;;2.17;2.08;;;22.00;99.90;;;;;;5063787;28;20304;-65
2023/06/19 06:49:52;;;;;;;2.60;2.40;;;22.10;99.90;;;;;;5050752;28;20225;-65
2023/06/19 06:52:20;;;;;;;4.47;3.42;;;22.10;99.90;;;;;;5065324;28;20201;-65
2023/06/19 06:54:47;;;;;;;4.40;4.00;;;22.20;99.90;;;;;;5067398;28;20227;-66
2023/06/19 06:57:15;;;;;;;4.00;3.70;;;22.20;99.90;;;;;;5064758;28;20209;-65
2023/06/19 06:59:42;;;;;;;2.70;2.50;;;22.30;99.90;;;;;;5066084;28;20194;-65
2023/06/19 07:02:11;;;;;;;3.10;2.80;;;22.30;99.90;;;;;;5058244;28;20200;-65
2023/06/19 07:04:40;;;;;;;3.15;2.95;;;22.30;99.90;;;;;;5068347;28;20229;-65
2023/06/19 07:07:08;;;;;;;3.90;3.50;;;22.40;99.90;;;;;;5067595;28;20189;-65
2023/06/19 07:09:36;;;;;;;3.42;3.13;;;22.00;99.90;;;;;;5064653;28;20279;-65
2023/06/19 07:12:04;;;;;;;3.03;2.83;;;22.50;99.90;;;;;;5066785;28;20193;-65
2023/06/19 07:14:32;;;;;;;2.58;2.47;;;22.50;99.90;;;;;;5068251;28;20254;-64
2023/06/19 07:16:59;;;;;;;3.08;2.88;;;22.60;99.90;;;;;;5066820;28;20315;-65
2023/06/19 07:19:27;;;;;;;2.70;2.50;;;22.60;99.90;;;;;;5067697;28;20617;-65
2023/06/19 07:21:56;;;;;;;4.63;3.00;;;22.70;99.90;;;;;;5066661;28;20628;-65
2023/06/19 07:24:23;;;;;;;3.05;2.80;;;22.80;99.90;;;;;;5065363;28;20197;-65
2023/06/19 07:26:51;;;;;;;3.10;2.80;;;22.90;99.90;;;;;;5058922;28;20217;-65
2023/06/19 07:29:18;;;;;;;2.75;2.55;;;22.90;99.90;;;;;;5062637;28;20208;-66
2023/06/19 07:31:46;;;;;;;3.83;3.53;;;23.00;99.90;;;;;;5065678;28;20189;-65
2023/06/19 07:34:14;;;;;;;3.00;2.80;;;23.00;99.90;;;;;;5067689;28;20279;-64
2023/06/19 07:36:42;;;;;;;2.80;2.60;;;23.00;99.90;;;;;;5067188;28;20223;-65
2023/06/19 07:39:11;;;;;;;3.33;3.13;;;23.10;99.90;;;;;;5064012;28;20228;-64
2023/06/19 07:41:38;;;;;;;3.70;3.40;;;23.20;99.90;;;;;;5066491;28;20723;-65
2023/06/19 07:44:06;;;;;;;4.05;3.75;;;23.30;99.90;;;;;;5063726;28;20563;-65
2023/06/19 07:46:34;;;;;;;4.18;3.78;;;23.30;99.90;;;;;;5066979;28;20217;-65
2023/06/19 07:49:01;;;;;;;4.15;3.83;;;23.40;99.90;;;;;;5066257;28;20652;-65
2023/06/19 07:51:28;;;;;;;3.47;3.17;;;23.40;99.90;;;;;;5066832;28;20595;-65
2023/06/19 07:53:56;;;;;;;3.42;3.13;;;23.40;99.90;;;;;;5054437;28;20205;-65
2023/06/19 07:56:25;;;;;;;3.15;2.95;;;23.50;99.90;;;;;;5055488;28;20204;-65
2023/06/19 07:58:53;;;;;;;6.78;3.17;;;23.60;99.90;;;;;;5054338;28;20189;-65
2023/06/19 08:01:20;;;;;;;2.45;2.35;;;23.60;99.90;;;;;;5060241;28;20511;-64
2023/06/19 08:03:48;;;;;;;2.65;2.45;;;23.70;99.90;;;;;;5063341;28;20228;-65
2023/06/19 08:06:15;;;;;;;2.72;2.53;;;23.70;99.90;;;;;;5056718;28;20297;-67
2023/06/19 08:08:43;;;;;;;2.40;2.30;;;23.80;99.90;;;;;;5063997;28;20197;-65
2023/06/19 08:11:13;;;;;;;4.72;2.80;;;23.80;99.90;;;;;;5060586;28;20198;-65
2023/06/19 08:13:44;;;;;;;3.80;3.10;;;23.90;99.90;;;;;;5063746;28;20194;-67
2023/06/19 08:16:12;;;;;;;3.80;3.45;;;24.00;99.90;;;;;;5066047;28;20193;-67
2023/06/19 08:18:39;;;;;;;4.35;3.67;;;24.10;99.90;;;;;;5065839;28;20205;-66
2023/06/19 08:23:33;;;;;;;10.50;3.80;;;24.10;99.90;;;;;;5079344;28;20876;-65
2023/06/19 08:26:01;;;;;;;3.20;2.90;;;24.20;99.90;;;;;;5075567;28;20176;-65
2023/06/19 08:28:29;;;;;;;2.63;2.53;;;24.20;99.90;;;;;;5084780;28;20196;-65
2023/06/19 08:30:57;;;;;;;4.03;3.65;;;24.30;99.90;;;;;;5071692;28;20208;-65
2023/06/19 08:33:25;;;;;;;3.00;2.80;;;24.40;99.90;;;;;;5083737;28;20203;-65
2023/06/19 08:35:52;;;;;;;3.00;2.80;;;24.50;99.90;;;;;;5084408;28;20230;-65
2023/06/19 08:38:20;;;;;;;3.15;2.95;;;24.60;99.80;;;;;;5078222;28;20291;-64
2023/06/19 08:40:50;;;;;;;3.50;3.30;;;24.70;99.50;;;;;;5083271;28;20281;-66
2023/06/19 08:43:17;;;;;;;3.70;3.47;;;24.70;99.20;;;;;;5072875;28;20666;-65
2023/06/19 08:45:55;;;;;;;2.83;2.63;;;24.80;99.10;;;;;;5079991;28;20209;-65
2023/06/19 08:48:23;;;;;;;2.78;2.58;;;24.90;99.20;;;;;;5078232;28;20215;-64
2023/06/19 08:50:50;;;;;;;2.90;2.70;;;24.90;99.10;;;;;;5081860;28;20196;-64
2023/06/19 08:53:18;;;;;;;2.53;2.42;;;24.90;98.90;;;;;;5076264;28;20215;-65
2023/06/19 08:55:45;;;;;;;2.55;2.35;;;25.00;98.40;;;;;;5069708;28;20751;-64
2023/06/19 08:58:22;;;;;;;2.33;2.22;;;25.00;97.70;;;;;;5071961;28;20193;-64
2023/06/19 09:00:50;;;;;;;2.40;2.30;;;25.10;97.30;;;;;;5078489;28;20253;-64
2023/06/19 09:03:22;;;;;;;2.90;2.70;;;25.10;97.00;;;;;;5082261;28;20221;-65
2023/06/19 09:05:50;;;;;;;2.40;2.30;;;25.10;96.70;;;;;;5079997;28;20247;-65
2023/06/19 09:08:18;;;;;;;2.53;2.42;;;25.20;96.60;;;;;;5082017;28;20291;-63
2023/06/19 09:10:56;;;;;;;2.45;2.35;;;25.20;96.50;;;;;;5079115;28;20327;-64
2023/06/19 09:13:25;;;;;;;2.10;2.00;;;25.20;96.40;;;;;;5082485;28;20225;-72
2023/06/19 09:16:00;;;;;;;3.38;3.08;;;25.20;96.40;;;;;;5071294;28;20193;-64
2023/06/19 09:18:27;;;;;;;3.00;2.70;;;25.10;96.10;;;;;;5077440;28;20217;-64
2023/06/19 09:20:55;;;;;;;3.20;3.00;;;25.10;95.70;;;;;;5078665;28;20290;-65
2023/06/19 09:23:23;;;;;;;2.78;2.58;;;25.20;95.40;;;;;;5066095;28;20505;-65
2023/06/19 09:25:55;;;;;;;2.33;2.22;;;25.20;95.40;;;;;;5073192;28;20192;-65
2023/06/19 09:28:26;;;;;;;2.30;2.20;;;25.30;95.40;;;;;;5083257;28;20204;-64
2023/06/19 09:30:56;;;;;;;2.10;2.00;;;25.40;95.30;;;;;;5071907;28;20229;-64
2023/06/19 09:33:24;;;;;;;2.35;2.25;;;25.50;95.00;;;;;;5074730;28;20648;-64
2023/06/19 09:35:53;;;;;;;3.15;2.97;;;25.60;94.90;;;;;;5060711;28;20197;-66
2023/06/19 09:38:22;;;;;;;3.30;3.10;;;25.60;94.60;;;;;;5076277;28;20209;-66
2023/06/19 09:40:50;;;;;;;3.45;3.15;;;25.70;94.30;;;;;;5061356;28;20305;-64
2023/06/19 09:43:20;;;;;;;2.60;2.50;;;25.80;94.30;;;;;;5066997;28;20375;-65
2023/06/19 09:45:51;;;;;;;2.03;1.92;;;25.80;94.20;;;;;;5063622;28;20226;-64
2023/06/19 09:48:21;;;;;;;3.28;3.08;;;25.80;94.10;;;;;;5059405;28;20217;-65
2023/06/19 09:50:55;;;;;;;5.18;3.03;;;25.80;93.90;;;;;;5061811;28;20198;-65
2023/06/19 09:53:24;;;;;;;3.30;2.90;;;25.80;94.20;;;;;;5064657;28;20197;-65
2023/06/19 09:55:52;;;;;;;4.20;2.70;;;25.70;94.40;;;;;;5062546;28;20205;-64
2023/06/19 09:58:21;;;;;;;2.70;2.50;;;25.60;94.70;;;;;;5062760;28;20304;-64
2023/06/19 10:00:51;;;;;;;2.88;2.65;;;25.60;95.10;;;;;;5067021;28;20197;-66
2023/06/19 10:03:18;;;;;;;3.50;3.20;;;25.50;95.30;;;;;;5062692;28;20225;-64
2023/06/19 10:05:46;;;;;;;3.25;2.95;;;25.50;95.70;;;;;;5060103;28;20474;-66
2023/06/19 10:08:29;;;;;;;7.45;3.60;;;25.40;95.90;;;;;;5065105;28;20227;-65
2023/06/19 10:10:57;;;;;;;3.63;3.33;;;25.30;96.30;;;;;;5066298;28;20563;-64
2023/06/19 10:13:33;;;;;;;3.72;3.17;;;25.30;96.50;;;;;;5069642;28;20197;-65
2023/06/19 10:16:02;;;;;;;3.60;2.58;;;25.10;96.70;;;;;;5065728;28;20689;-65
2023/06/19 10:18:30;;;;;;;2.00;1.90;;;25.00;96.90;;;;;;5062899;28;20260;-65
2023/06/19 10:20:57;;;;;;;2.03;1.92;;;25.00;97.00;;;;;;5066486;28;20231;-65
2023/06/19 10:23:28;;;;;;;3.03;1.80;;;25.00;97.20;;;;;;5065665;28;20316;-65
2023/06/19 10:26:00;;;;;;;1.80;1.70;;;24.90;97.40;;;;;;5063327;28;20190;-64
2023/06/19 10:28:28;;;;;;;1.75;1.65;;;24.90;97.60;;;;;;5068538;28;20220;-64
2023/06/19 10:30:57;;;;;;;2.80;1.60;;;24.90;97.70;;;;;;5068240;28;20189;-64
2023/06/19 10:33:28;;;;;;;2.00;1.90;;;24.80;97.90;;;;;;5063002;28;20212;-65
2023/06/19 10:35:56;;;;;;;2.63;2.53;;;24.80;98.10;;;;;;5065393;28;20197;-65
2023/06/19 10:38:23;;;;;;;2.40;2.20;;;24.70;98.30;;;;;;5067437;28;20201;-64
2023/06/19 10:40:53;;;;;;;3.25;3.05;;;24.80;98.50;;;;;;5061828;28;20642;-64
2023/06/19 10:43:24;;;;;;;3.15;2.95;;;24.80;98.80;;;;;;5062685;28;20213;-64
2023/06/19 10:45:52;;;;;;;2.90;2.70;;;24.80;98.90;;;;;;5062525;28;20761;-65
2023/06/19 10:48:21;;;;;;;2.25;2.15;;;24.70;99.00;;;;;;5039878;28;20212;-64
2023/06/19 10:50:51;;;;;;;2.65;2.45;;;24.70;99.10;;;;;;5065497;28;20192;-64
2023/06/19 10:53:28;;;;;;;2.35;2.20;;;24.60;99.10;;;;;;5060887;28;20197;-64
2023/06/19 10:55:57;;;;;;;2.15;2.05;;;24.50;99.20;;;;;;5058704;28;20283;-65
2023/06/19 10:58:24;;;;;;;2.03;1.92;;;24.50;99.30;;;;;;5054707;28;20746;-64
2023/06/19 11:00:52;;;;;;;1.80;1.70;;;24.50;99.30;;;;;;5060869;28;20221;-64
2023/06/19 11:03:20;;;;;;;1.70;1.60;;;24.50;99.40;;;;;;5062292;28;20621;-64
2023/06/19 11:05:50;;;;;;;3.22;2.70;;;24.50;99.50;;;;;;5062507;28;20197;-64
2023/06/19 11:08:22;;;;;;;6.72;2.78;;;24.50;99.50;;;;;;5052689;28;20201;-64
2023/06/19 11:10:50;;;;;;;4.70;4.30;;;24.50;99.60;;;;;;5060515;28;20194;-64
2023/06/19 11:13:18;;;;;;;5.20;4.40;;;24.70;99.60;;;;;;5066333;28;20243;-64
2023/06/19 11:15:46;;;;;;;5.55;4.80;;;24.80;99.50;;;;;;5059630;28;20202;-65
2023/06/19 11:18:16;;;;;;;5.15;4.65;;;24.90;99.40;;;;;;5061550;28;20205;-64
2023/06/19 11:20:49;;;;;;;5.80;4.82;;;25.10;99.10;;;;;;5066814;28;20232;-64
2023/06/19 11:23:25;;;;;;;5.07;4.30;;;25.10;98.80;;;;;;5053040;28;20794;-64
2023/06/19 11:25:53;;;;;;;4.38;4.05;;;25.10;98.70;;;;;;5062154;28;20185;-64
2023/06/19 11:28:22;;;;;;;4.00;3.75;;;25.10;98.40;;;;;;5068254;28;20205;-63
2023/06/19 11:30:50;;;;;;;4.60;4.22;;;25.20;98.20;;;;;;5067025;28;20203;-65
2023/06/19 11:33:22;;;;;;;4.50;4.10;;;25.20;97.80;;;;;;5057102;28;20275;-65
2023/06/19 11:35:49;;;;;;;3.60;3.30;;;25.20;97.70;;;;;;5063948;28;20339;-66
2023/06/19 11:38:21;;;;;;;4.03;3.72;;;25.20;97.60;;;;;;5063952;28;20201;-65
2023/06/19 11:40:49;;;;;;;5.72;3.95;;;25.10;97.70;;;;;;5064505;28;20205;-64
2023/06/19 11:43:26;;;;;;;4.20;3.83;;;25.10;97.60;;;;;;5062622;28;20489;-65
2023/06/19 11:45:55;;;;;;;3.95;3.55;;;25.10;97.60;;;;;;5064840;28;20473;-65
2023/06/19 11:48:26;;;;;;;4.03;3.83;;;25.10;97.60;;;;;;5059455;28;20193;-65
2023/06/19 11:50:55;;;;;;;5.97;3.38;;;25.10;97.60;;;;;;5062970;28;20505;-64
2023/06/19 11:53:26;;;;;;;3.35;3.15;;;25.10;97.60;;;;;;5066550;28;20622;-65
2023/06/19 11:55:53;;;;;;;4.13;3.83;;;25.00;97.60;;;;;;5063154;28;20284;-65
2023/06/19 11:58:21;;;;;;;4.78;3.70;;;25.00;97.60;;;;;;5059679;28;20687;-65
2023/06/19 12:00:49;;;;;;;4.05;3.75;;;25.00;97.60;;;;;;5064368;28;20650;-66
2023/06/19 12:03:16;;;;;;;4.10;3.70;;;24.90;97.50;;;;;;5062386;28;20223;-65
2023/06/19 12:05:44;;;;;;;3.58;3.33;;;24.90;97.50;;;;;;5065110;28;20459;-64
2023/06/19 12:08:11;;;;;;;3.20;3.00;;;24.90;97.40;;;;;;5067793;28;20255;-64
2023/06/19 12:10:40;;;;;;;2.72;2.63;;;24.80;97.40;;;;;;5062175;28;20197;-64
2023/06/19 12:13:08;;;;;;;3.00;2.80;;;24.80;97.40;;;;;;5064965;28;20181;-64
2023/06/19 12:15:36;;;;;;;3.72;3.25;;;24.90;97.40;;;;;;5062436;28;20204;-65
2023/06/19 12:18:03;;;;;;;3.92;3.00;;;25.10;97.30;;;;;;5058220;28;20303;-64
2023/06/19 12:20:31;;;;;;;4.10;3.72;;;25.30;97.20;;;;;;5062716;28;20231;-65
2023/06/19 12:22:58;;;;;;;4.57;4.18;;;25.40;97.00;;;;;;5063200;28;20229;-65
2023/06/19 12:25:26;;;;;;;4.05;3.75;;;25.50;96.80;;;;;;5065833;28;20224;-65
2023/06/19 12:27:55;;;;;;;4.10;3.75;;;25.60;96.80;;;;;;5057362;28;20204;-65
2023/06/19 12:30:27;;;;;;;3.90;3.60;;;25.60;96.80;;;;;;5064426;28;20223;-65
2023/06/19 12:32:55;;;;;;;3.90;3.60;;;25.50;96.80;;;;;;5066517;28;20226;-63
2023/06/19 12:35:23;;;;;;;4.28;3.85;;;25.50;96.90;;;;;;5062242;28;20201;-64
2023/06/19 12:37:50;;;;;;;3.90;3.60;;;25.40;97.00;;;;;;5066579;28;20627;-64
2023/06/19 12:40:18;;;;;;;3.97;3.70;;;25.50;97.10;;;;;;5066282;28;20193;-65
2023/06/19 12:42:46;;;;;;;4.10;3.75;;;25.50;97.10;;;;;;5064592;28;20232;-64
2023/06/19 12:45:15;;;;;;;4.55;4.15;;;25.50;97.10;;;;;;5065339;28;20201;-66
2023/06/19 12:47:42;;;;;;;4.32;4.03;;;25.60;97.20;;;;;;5065904;28;20981;-65
2023/06/19 12:50:13;;;;;;;8.00;4.13;;;25.70;97.00;;;;;;5064213;28;20281;-65
2023/06/19 12:52:40;;;;;;;4.05;3.72;;;25.70;96.80;;;;;;5064599;28;20189;-66
2023/06/19 12:55:08;;;;;;;4.57;4.18;;;25.70;96.70;;;;;;5063823;28;20208;-65
2023/06/19 12:57:36;;;;;;;4.20;3.67;;;25.60;96.60;;;;;;5062194;28;20512;-65
2023/06/19 13:00:05;;;;;;;3.30;3.10;;;25.60;96.60;;;;;;5067202;28;20208;-65